createdAt,value
2022-12-28T00:01:24.649Z,94998.38
2022-12-28T00:03:52.756Z,95006.09
2022-12-28T00:06:21.896Z,95004.88
2022-12-28T00:08:48.350Z,95003.66
2022-12-28T00:11:27.601Z,95010.38
2022-12-28T00:13:58.025Z,95000.63
2022-12-28T00:16:28.481Z,95003.66
2022-12-28T00:18:57.520Z,95005.22
2022-12-28T00:21:24.583Z,95004.22
2022-12-28T00:23:52.808Z,95000.63
2022-12-28T00:26:19.995Z,95005.03
2022-12-28T00:28:46.870Z,95000.19
2022-12-28T00:31:14.445Z,94996.63
2022-12-28T00:33:41.152Z,94993.81
2022-12-28T00:36:07.890Z,94984.31
2022-12-28T00:38:37.435Z,94981.31
2022-12-28T00:41:06.501Z,94972.59
2022-12-28T00:43:33.092Z,94969.56
2022-12-28T00:45:59.738Z,94962.84
2022-12-28T00:48:26.304Z,94961.06
2022-12-28T00:50:52.866Z,94949.00
2022-12-28T00:53:19.518Z,94948.50
2022-12-28T00:55:46.126Z,94952.66
2022-12-28T00:58:12.568Z,94957.59
2022-12-28T01:00:39.139Z,94951.66
2022-12-28T01:03:05.703Z,94951.22
2022-12-28T01:05:32.290Z,94956.38
2022-12-28T01:07:58.782Z,94951.44
2022-12-28T01:10:25.204Z,94947.31
2022-12-28T01:12:51.660Z,94958.72
2022-12-28T01:15:19.371Z,94954.34
2022-12-28T01:17:46.751Z,94959.50
2022-12-28T01:20:13.180Z,94954.78
2022-12-28T01:22:39.796Z,94956.47
2022-12-28T01:25:07.042Z,94959.06
2022-12-28T01:27:37.019Z,94949.75
2022-12-28T01:30:05.057Z,94943.59
2022-12-28T01:32:31.567Z,94947.53
2022-12-28T01:34:58.014Z,94938.78
2022-12-28T01:37:24.422Z,94941.94
2022-12-28T01:39:50.844Z,94943.47
2022-12-28T01:42:19.454Z,94942.72
2022-12-28T01:44:52.305Z,94939.56
2022-12-28T01:47:26.673Z,94935.00
2022-12-28T01:50:02.383Z,94930.41
2022-12-28T01:52:44.878Z,94925.59
2022-12-28T01:55:24.710Z,94922.78
2022-12-28T01:58:01.288Z,94916.72
2022-12-28T02:00:28.059Z,94909.56
2022-12-28T02:03:02.210Z,94913.00
2022-12-28T02:05:34.453Z,94907.63
2022-12-28T02:08:13.479Z,94903.84
2022-12-28T02:10:45.837Z,94896.88
2022-12-28T02:13:15.565Z,94898.19
2022-12-28T02:15:42.572Z,94889.28
2022-12-28T02:18:09.908Z,94889.38
2022-12-28T02:21:22.425Z,94877.38
2022-12-28T02:24:30.176Z,94869.19
2022-12-28T02:27:24.844Z,94872.50
2022-12-28T02:30:08.192Z,94861.75
2022-12-28T02:32:47.173Z,94862.31
2022-12-28T02:35:30.193Z,94860.75
2022-12-28T02:38:11.393Z,94863.31
2022-12-28T02:40:45.401Z,94855.84
2022-12-28T02:43:12.811Z,94847.53
2022-12-28T02:46:05.929Z,94847.31
2022-12-28T02:49:02.768Z,94833.31
2022-12-28T02:51:41.157Z,94832.25
2022-12-28T02:55:03.191Z,94835.03
2022-12-28T02:58:06.759Z,94841.44
2022-12-28T03:00:50.959Z,94830.34
2022-12-28T03:03:23.338Z,94833.69
2022-12-28T03:06:26.943Z,94823.19
2022-12-28T03:09:21.202Z,94813.63
2022-12-28T03:11:53.198Z,94812.88
2022-12-28T03:14:26.496Z,94812.09
2022-12-28T03:17:17.623Z,94809.53
2022-12-28T03:20:15.395Z,94810.06
2022-12-28T03:23:02.719Z,94805.16
2022-12-28T03:25:53.068Z,94813.09
2022-12-28T03:28:48.192Z,94807.41
2022-12-28T03:31:19.859Z,94800.69
2022-12-28T03:33:54.134Z,94797.31
2022-12-28T03:36:20.585Z,94796.56
2022-12-28T03:39:00.417Z,94795.53
2022-12-28T03:41:41.495Z,94787.78
2022-12-28T03:44:32.364Z,94795.53
2022-12-28T03:47:18.889Z,94783.91
2022-12-28T03:49:45.756Z,94790.84
2022-12-28T03:52:12.949Z,94779.97
2022-12-28T03:54:40.757Z,94778.97
2022-12-28T03:57:08.417Z,94774.06
2022-12-28T03:59:39.745Z,94771.00
2022-12-28T04:02:07.235Z,94778.97
2022-12-28T04:04:33.985Z,94775.38
2022-12-28T04:07:00.715Z,94771.00
2022-12-28T04:09:27.166Z,94785.69
2022-12-28T04:11:54.120Z,94784.69
2022-12-28T04:14:32.662Z,94781.84
2022-12-28T04:16:59.127Z,94773.13
2022-12-28T04:19:25.639Z,94760.00
2022-12-28T04:21:52.125Z,94750.50
2022-12-28T04:24:18.552Z,94755.97
2022-12-28T04:26:45.008Z,94745.75
2022-12-28T04:29:12.771Z,94749.44
2022-12-28T04:31:46.862Z,94733.41
2022-12-28T04:34:17.617Z,94729.38
2022-12-28T04:36:54.173Z,94731.94
2022-12-28T04:39:22.220Z,94730.94
2022-12-28T04:41:48.707Z,94731.69
2022-12-28T04:44:15.156Z,94735.59
2022-12-28T04:46:41.618Z,94722.72
2022-12-28T04:49:08.045Z,94727.66
2022-12-28T04:51:35.313Z,94732.03
2022-12-28T04:54:01.782Z,94737.97
2022-12-28T04:56:28.260Z,94737.41
2022-12-28T04:58:59.483Z,94734.84
2022-12-28T05:01:26.519Z,94732.03
2022-12-28T05:03:57.370Z,94724.53
2022-12-28T05:06:27.412Z,94718.59
2022-12-28T05:08:55.380Z,94711.88
2022-12-28T05:11:24.760Z,94715.00
2022-12-28T05:13:51.247Z,94712.66
2022-12-28T05:16:20.416Z,94714.53
2022-12-28T05:18:46.996Z,94717.91
2022-12-28T05:21:16.647Z,94717.34
2022-12-28T05:23:43.472Z,94715.56
2022-12-28T05:26:13.217Z,94717.34
2022-12-28T05:28:40.375Z,94709.38
2022-12-28T05:31:10.794Z,94706.59
2022-12-28T05:33:37.868Z,94707.38
2022-12-28T05:36:05.092Z,94703.75
2022-12-28T05:38:32.411Z,94706.91
2022-12-28T05:41:26.353Z,94706.91
2022-12-28T05:43:53.211Z,94698.84
2022-12-28T05:46:24.553Z,94708.38
2022-12-28T05:48:51.319Z,94705.53
2022-12-28T05:51:21.444Z,94708.63
2022-12-28T05:53:48.215Z,94713.00
2022-12-28T05:56:18.105Z,94716.34
2022-12-28T05:58:46.082Z,94705.47
2022-12-28T06:01:17.686Z,94704.53
2022-12-28T06:03:45.062Z,94708.69
2022-12-28T06:06:17.471Z,94712.81
2022-12-28T06:08:45.558Z,94709.22
2022-12-28T06:11:15.274Z,94700.97
2022-12-28T06:13:42.366Z,94710.25
2022-12-28T06:16:20.482Z,94697.59
2022-12-28T06:18:47.877Z,94706.34
2022-12-28T06:21:16.842Z,94702.75
2022-12-28T06:23:44.148Z,94705.34
2022-12-28T06:26:13.192Z,94702.50
2022-12-28T06:28:40.400Z,94702.28
2022-12-28T06:31:08.451Z,94698.47
2022-12-28T06:33:35.054Z,94699.25
2022-12-28T06:36:02.014Z,94703.94
2022-12-28T06:38:31.194Z,94701.81
2022-12-28T06:41:13.263Z,94701.91
2022-12-28T06:43:43.849Z,94703.47
2022-12-28T06:46:12.287Z,94698.84
2022-12-28T06:48:39.444Z,94695.81
2022-12-28T06:51:14.503Z,94697.34
2022-12-28T06:53:41.416Z,94697.34
2022-12-28T06:56:11.827Z,94688.59
2022-12-28T06:58:38.447Z,94675.19
2022-12-28T07:01:19.481Z,94677.28
2022-12-28T07:03:47.274Z,94683.78
2022-12-28T07:06:16.341Z,94677.84
2022-12-28T07:08:43.295Z,94672.69
2022-12-28T07:11:17.754Z,94683.78
2022-12-28T07:13:44.183Z,94671.09
2022-12-28T07:16:15.612Z,94666.72
2022-12-28T07:18:42.428Z,94666.47
2022-12-28T07:21:15.704Z,94671.63
2022-12-28T07:23:42.558Z,94667.06
2022-12-28T07:26:14.783Z,94656.44
2022-12-28T07:28:44.655Z,94660.63
2022-12-28T07:31:13.799Z,94667.34
2022-12-28T07:33:40.792Z,94663.53
2022-12-28T07:36:08.498Z,94659.91
2022-12-28T07:38:35.613Z,94651.72
2022-12-28T07:41:07.677Z,94655.59
2022-12-28T07:43:35.005Z,94654.06
2022-12-28T07:46:10.895Z,94654.97
2022-12-28T07:48:39.100Z,94646.19
2022-12-28T07:51:27.127Z,94658.88
2022-12-28T07:53:54.784Z,94657.63
2022-12-28T07:56:22.997Z,94645.50
2022-12-28T07:58:51.510Z,94651.41
2022-12-28T08:01:19.990Z,94643.69
2022-12-28T08:03:46.871Z,94642.13
2022-12-28T08:06:19.967Z,94647.63
2022-12-28T08:08:49.375Z,94659.94
2022-12-28T08:11:21.826Z,94653.78
2022-12-28T08:13:50.539Z,94650.94
2022-12-28T08:16:19.489Z,94658.69
2022-12-28T08:18:47.751Z,94642.19
2022-12-28T08:21:18.929Z,94651.50
2022-12-28T08:23:46.166Z,94651.03
2022-12-28T08:26:14.206Z,94646.88
2022-12-28T08:28:42.280Z,94656.19
2022-12-28T08:31:12.228Z,94644.63
2022-12-28T08:33:38.990Z,94643.56
2022-12-28T08:36:06.597Z,94640.22
2022-12-28T08:38:33.867Z,94641.00
2022-12-28T08:41:02.641Z,94634.81
2022-12-28T08:43:31.047Z,94631.16
2022-12-28T08:46:06.861Z,94639.94
2022-12-28T08:48:34.451Z,94644.63
2022-12-28T08:51:03.528Z,94644.34
2022-12-28T08:53:30.212Z,94636.31
2022-12-28T08:56:06.385Z,94639.44
2022-12-28T08:58:33.640Z,94638.19
2022-12-28T09:01:18.061Z,94630.19
2022-12-28T09:03:46.504Z,94630.44
2022-12-28T09:06:15.654Z,94631.81
2022-12-28T09:08:42.643Z,94637.78
2022-12-28T09:11:13.494Z,94625.72
2022-12-28T09:13:40.879Z,94631.41
2022-12-28T09:16:10.539Z,94638.41
2022-12-28T09:18:38.811Z,94638.97
2022-12-28T09:21:11.894Z,94639.50
2022-12-28T09:23:38.656Z,94634.34
2022-12-28T09:26:16.976Z,94646.19
2022-12-28T09:28:48.144Z,94655.81
2022-12-28T09:31:15.470Z,94638.06
2022-12-28T09:36:47.007Z,94647.94
2022-12-28T09:39:17.426Z,94646.69
2022-12-28T09:41:49.346Z,94635.63
2022-12-28T09:44:37.827Z,94644.50
2022-12-28T09:47:19.430Z,94639.13
2022-12-28T09:49:49.649Z,94634.56
2022-12-28T09:52:29.901Z,94628.19
2022-12-28T09:55:03.921Z,94637.59
2022-12-28T09:57:37.141Z,94631.47
2022-12-28T10:00:06.537Z,94630.00
2022-12-28T10:02:37.787Z,94631.38
2022-12-28T10:05:05.235Z,94614.59
2022-12-28T10:07:33.604Z,94612.03
2022-12-28T10:10:00.201Z,94607.44
2022-12-28T10:12:29.624Z,94597.66
2022-12-28T10:14:57.251Z,94603.94
2022-12-28T10:17:28.267Z,94607.31
2022-12-28T10:19:57.862Z,94600.63
2022-12-28T10:22:27.227Z,94596.28
2022-12-28T10:24:54.146Z,94591.09
2022-12-28T10:27:31.463Z,94593.16
2022-12-28T10:30:01.275Z,94591.84
2022-12-28T10:32:48.571Z,94584.84
2022-12-28T10:35:23.598Z,94589.75
2022-12-28T10:37:50.115Z,94586.16
2022-12-28T10:40:28.318Z,94589.06
2022-12-28T10:42:56.663Z,94568.38
2022-12-28T10:45:33.570Z,94578.22
2022-12-28T10:48:02.571Z,94567.44
2022-12-28T10:50:47.767Z,94567.44
2022-12-28T10:53:31.300Z,94558.16
2022-12-28T10:56:02.930Z,94554.28
2022-12-28T10:58:31.296Z,94545.25
2022-12-28T11:01:12.581Z,94550.16
2022-12-28T11:03:42.611Z,94534.59
2022-12-28T11:06:10.208Z,94538.19
2022-12-28T11:08:37.821Z,94534.50
2022-12-28T11:11:04.341Z,94535.00
2022-12-28T11:13:30.842Z,94528.41
2022-12-28T11:15:57.485Z,94538.75
2022-12-28T11:18:24.075Z,94523.38
2022-12-28T11:20:53.128Z,94520.44
2022-12-28T11:23:31.400Z,94517.03
2022-12-28T11:25:59.191Z,94505.06
2022-12-28T11:28:25.665Z,94500.59
2022-12-28T11:30:52.531Z,94499.94
2022-12-28T11:33:27.880Z,94500.88
2022-12-28T11:35:59.615Z,94500.81
2022-12-28T11:38:44.172Z,94488.41
2022-12-28T11:41:33.440Z,94492.06
2022-12-28T11:44:02.824Z,94480.47
2022-12-28T11:46:35.104Z,94476.78
2022-12-28T11:49:35.900Z,94473.38
2022-12-28T11:52:14.698Z,94471.13
2022-12-28T11:54:53.747Z,94473.69
2022-12-28T11:57:36.463Z,94471.38
2022-12-28T12:00:22.672Z,94467.91
2022-12-28T12:02:56.523Z,94458.97
2022-12-28T12:05:38.403Z,94452.25
2022-12-28T12:08:16.907Z,94450.97
2022-12-28T12:10:45.257Z,94447.94
2022-12-28T12:13:23.701Z,94433.66
2022-12-28T12:15:52.987Z,94434.88
2022-12-28T12:18:25.528Z,94437.34
2022-12-28T12:21:21.436Z,94437.63
2022-12-28T12:23:52.080Z,94432.13
2022-12-28T12:26:35.483Z,94426.06
2022-12-28T12:29:14.628Z,94422.50
2022-12-28T12:31:48.557Z,94415.00
2022-12-28T12:34:46.286Z,94410.72
2022-12-28T12:37:31.152Z,94408.09
2022-12-28T12:40:09.788Z,94402.25
2022-12-28T12:42:55.904Z,94393.94
2022-12-28T12:45:31.084Z,94396.97
2022-12-28T12:48:16.776Z,94389.00
2022-12-28T12:50:57.611Z,94390.59
2022-12-28T12:53:56.213Z,94388.53
2022-12-28T12:56:35.311Z,94388.16
2022-12-28T12:59:21.539Z,94381.50
2022-12-28T13:02:12.371Z,94380.88
2022-12-28T13:04:45.867Z,94383.34
2022-12-28T13:07:22.119Z,94388.56
2022-12-28T13:09:50.478Z,94381.09
2022-12-28T13:12:18.944Z,94381.38
2022-12-28T13:14:47.651Z,94375.00
2022-12-28T13:17:19.392Z,94368.25
2022-12-28T13:19:46.268Z,94370.59
2022-12-28T13:22:33.742Z,94370.16
2022-12-28T13:25:00.193Z,94360.84
2022-12-28T13:27:35.389Z,94355.59
2022-12-28T13:30:03.063Z,94359.22
2022-12-28T13:32:38.268Z,94360.22
2022-12-28T13:35:19.884Z,94361.31
2022-12-28T13:38:09.671Z,94353.59
2022-12-28T13:40:38.584Z,94351.59
2022-12-28T13:43:13.469Z,94368.00
2022-12-28T13:45:39.959Z,94362.38
2022-12-28T13:48:08.249Z,94362.69
2022-12-28T13:50:38.445Z,94352.38
2022-12-28T13:53:11.507Z,94363.81
2022-12-28T13:55:43.348Z,94357.88
2022-12-28T13:58:14.453Z,94354.25
2022-12-28T14:00:45.751Z,94352.72
2022-12-28T14:03:13.091Z,94359.69
2022-12-28T14:05:45.150Z,94357.63
2022-12-28T14:08:11.791Z,94342.63
2022-12-28T14:10:38.225Z,94348.59
2022-12-28T14:13:04.953Z,94345.78
2022-12-28T14:15:39.004Z,94339.28
2022-12-28T14:18:08.430Z,94349.16
2022-12-28T14:20:49.757Z,94343.22
2022-12-28T14:23:20.243Z,94330.81
2022-12-28T14:25:46.773Z,94339.63
2022-12-28T14:28:31.740Z,94340.66
2022-12-28T14:30:58.358Z,94332.91
2022-12-28T14:33:27.774Z,94334.22
2022-12-28T14:35:59.349Z,94336.03
2022-12-28T14:38:32.751Z,94337.59
2022-12-28T14:41:01.842Z,94334.75
2022-12-28T14:43:32.489Z,94341.47
2022-12-28T14:46:30.615Z,94331.13
2022-12-28T14:48:57.609Z,94330.63
2022-12-28T14:51:30.062Z,94322.59
2022-12-28T14:54:17.403Z,94318.47
2022-12-28T14:56:53.295Z,94316.63
2022-12-28T14:59:25.162Z,94325.97
2022-12-28T15:01:52.563Z,94318.72
2022-12-28T15:04:28.178Z,94319.50
2022-12-28T15:06:54.898Z,94314.84
2022-12-28T15:09:21.646Z,94314.56
2022-12-28T15:11:48.180Z,94303.47
2022-12-28T15:14:14.598Z,94312.25
2022-12-28T15:16:41.074Z,94306.81
2022-12-28T15:19:07.509Z,94290.53
2022-12-28T15:21:33.977Z,94305.03
2022-12-28T15:24:00.459Z,94301.91
2022-12-28T15:26:27.913Z,94303.97
2022-12-28T15:28:54.416Z,94300.59
2022-12-28T15:31:21.685Z,94293.13
2022-12-28T15:33:48.615Z,94295.16
2022-12-28T15:36:21.005Z,94291.56
2022-12-28T15:38:48.456Z,94281.47
2022-12-28T15:41:35.331Z,94281.47
2022-12-28T15:44:02.633Z,94277.84
2022-12-28T15:46:29.134Z,94275.00
2022-12-28T15:48:55.662Z,94282.25
2022-12-28T15:51:22.101Z,94281.19
2022-12-28T15:53:48.586Z,94291.03
2022-12-28T15:56:27.765Z,94295.69
2022-12-28T15:58:56.380Z,94288.69
2022-12-28T16:01:24.015Z,94296.69
2022-12-28T16:03:55.113Z,94289.41
2022-12-28T16:06:23.037Z,94288.41
2022-12-28T16:08:52.968Z,94285.53
2022-12-28T16:11:20.833Z,94281.66
2022-12-28T16:13:52.339Z,94273.13
2022-12-28T16:16:19.310Z,94279.56
2022-12-28T16:18:45.882Z,94286.56
2022-12-28T16:21:12.365Z,94282.41
2022-12-28T16:23:42.049Z,94286.03
2022-12-28T16:26:10.288Z,94283.69
2022-12-28T16:28:37.179Z,94292.00
2022-12-28T16:31:04.111Z,94291.44
2022-12-28T16:33:31.108Z,94285.25
2022-12-28T16:35:59.973Z,94287.56
2022-12-28T16:38:28.602Z,94283.69
2022-12-28T16:40:56.834Z,94286.00
2022-12-28T16:43:23.855Z,94273.88
2022-12-28T16:45:50.652Z,94274.38
2022-12-28T16:48:17.133Z,94269.47
2022-12-28T16:50:43.898Z,94272.06
2022-12-28T16:53:10.428Z,94261.72
2022-12-28T16:55:42.229Z,94267.66
2022-12-28T16:58:09.872Z,94258.63
2022-12-28T17:00:36.289Z,94259.13
2022-12-28T17:03:02.832Z,94249.59
2022-12-28T17:05:35.334Z,94256.56
2022-12-28T17:08:03.211Z,94245.44
2022-12-28T17:10:30.244Z,94251.13
2022-12-28T17:12:57.365Z,94240.03
2022-12-28T17:15:23.920Z,94238.22
2022-12-28T17:17:50.364Z,94238.22
2022-12-28T17:20:16.984Z,94240.28
2022-12-28T17:22:43.433Z,94226.06
2022-12-28T17:25:09.865Z,94236.41
2022-12-28T17:27:36.369Z,94243.91
2022-12-28T17:30:03.212Z,94232.53
2022-12-28T17:32:29.593Z,94228.41
2022-12-28T17:34:55.986Z,94231.75
2022-12-28T17:37:22.420Z,94227.91
2022-12-28T17:39:48.846Z,94228.41
2022-12-28T17:42:15.476Z,94228.94
2022-12-28T17:44:41.902Z,94230.50
2022-12-28T17:47:08.495Z,94236.69
2022-12-28T17:49:34.932Z,94222.19
2022-12-28T17:52:01.346Z,94229.72
2022-12-28T17:54:27.793Z,94228.44
2022-12-28T17:56:54.179Z,94235.66
2022-12-28T17:59:20.586Z,94226.88
2022-12-28T18:01:47.076Z,94234.63
2022-12-28T18:04:13.613Z,94233.88
2022-12-28T18:06:40.374Z,94233.31
2022-12-28T18:09:07.354Z,94234.63
2022-12-28T18:11:33.822Z,94233.09
2022-12-28T18:14:00.329Z,94231.78
2022-12-28T18:16:27.395Z,94237.75
2022-12-28T18:18:54.335Z,94221.47
2022-12-28T18:21:23.121Z,94220.94
2022-12-28T18:23:51.794Z,94224.31
2022-12-28T18:26:26.263Z,94219.16
2022-12-28T18:28:54.010Z,94213.19
2022-12-28T18:31:20.900Z,94214.72
2022-12-28T18:33:48.139Z,94210.34
2022-12-28T18:36:17.810Z,94209.31
2022-12-28T18:38:46.120Z,94200.78
2022-12-28T18:41:15.384Z,94210.63
2022-12-28T18:43:42.466Z,94202.59
2022-12-28T18:46:09.701Z,94203.38
2022-12-28T18:48:38.337Z,94200.53
2022-12-28T18:51:08.369Z,94202.88
2022-12-28T18:53:35.415Z,94195.91
2022-12-28T18:56:05.236Z,94199.00
2022-12-28T18:58:34.584Z,94193.81
2022-12-28T19:01:06.189Z,94188.66
2022-12-28T19:03:33.751Z,94181.16
2022-12-28T19:06:03.308Z,94171.59
2022-12-28T19:08:33.738Z,94175.72
2022-12-28T19:11:01.600Z,94171.34
2022-12-28T19:13:31.937Z,94164.59
2022-12-28T19:15:58.353Z,94164.88
2022-12-28T19:18:24.823Z,94169.00
2022-12-28T19:20:58.622Z,94159.19
2022-12-28T19:23:25.973Z,94168.00
2022-12-28T19:25:54.604Z,94165.94
2022-12-28T19:28:21.040Z,94155.84
2022-12-28T19:30:47.449Z,94158.72
2022-12-28T19:33:13.863Z,94152.00
2022-12-28T19:35:40.388Z,94148.88
2022-12-28T19:38:06.790Z,94136.19
2022-12-28T19:40:33.182Z,94132.81
2022-12-28T19:42:59.569Z,94123.03
2022-12-28T19:45:25.977Z,94118.88
2022-12-28T19:47:52.375Z,94125.09
2022-12-28T19:50:18.825Z,94120.97
2022-12-28T19:52:45.211Z,94129.75
2022-12-28T19:55:11.633Z,94125.59
2022-12-28T19:57:38.921Z,94126.66
2022-12-28T20:00:07.666Z,94109.34
2022-12-28T20:02:34.311Z,94108.56
2022-12-28T20:05:00.859Z,94107.00
2022-12-28T20:07:27.366Z,94110.34
2022-12-28T20:09:53.778Z,94108.28
2022-12-28T20:12:22.437Z,94110.88
2022-12-28T20:14:49.433Z,94099.50
2022-12-28T20:17:15.838Z,94107.78
2022-12-28T20:19:42.260Z,94106.50
2022-12-28T20:22:08.680Z,94105.97
2022-12-28T20:24:35.147Z,94111.91
2022-12-28T20:27:02.056Z,94112.69
2022-12-28T20:29:28.708Z,94112.69
2022-12-28T20:31:55.199Z,94103.41
2022-12-28T20:34:21.645Z,94112.19
2022-12-28T20:36:49.380Z,94108.56
2022-12-28T20:39:15.822Z,94097.69
2022-12-28T20:42:01.479Z,94104.41
2022-12-28T20:44:32.282Z,94100.81
2022-12-28T20:47:00.416Z,94100.81
2022-12-28T20:49:27.765Z,94100.81
2022-12-28T20:51:54.555Z,94087.88
2022-12-28T20:54:21.349Z,94088.91
2022-12-28T20:56:53.897Z,94089.41
2022-12-28T20:59:21.515Z,94089.41
2022-12-28T21:01:48.101Z,94096.63
2022-12-28T21:04:14.906Z,94083.69
2022-12-28T21:06:41.453Z,94076.72
2022-12-28T21:09:07.953Z,94079.28
2022-12-28T21:11:34.379Z,94065.84
2022-12-28T21:14:00.798Z,94078.50
2022-12-28T21:16:27.459Z,94080.81
2022-12-28T21:18:53.993Z,94078.00
2022-12-28T21:21:21.957Z,94069.97
2022-12-28T21:23:48.694Z,94073.03
2022-12-28T21:26:17.092Z,94074.88
2022-12-28T21:28:44.137Z,94083.66
2022-12-28T21:31:11.403Z,94064.50
2022-12-28T21:33:38.781Z,94066.03
2022-12-28T21:36:20.043Z,94058.03
2022-12-28T21:38:47.826Z,94055.69
2022-12-28T21:41:41.772Z,94053.41
2022-12-28T21:44:12.839Z,94056.22
2022-12-28T21:46:39.744Z,94052.88
2022-12-28T21:49:06.946Z,94048.47
2022-12-28T21:51:38.436Z,94038.13
2022-12-28T21:54:11.876Z,94033.22
2022-12-28T21:56:38.823Z,94052.13
2022-12-28T21:59:06.113Z,94040.22
2022-12-28T22:01:50.961Z,94032.44
2022-12-28T22:04:38.556Z,94037.63
2022-12-28T22:07:06.591Z,94033.50
2022-12-28T22:09:52.207Z,94035.53
2022-12-28T22:12:37.205Z,94032.44
2022-12-28T22:15:31.568Z,94029.31
2022-12-28T22:18:00.590Z,94026.22
2022-12-28T22:20:28.354Z,94015.09
2022-12-28T22:22:57.125Z,94008.91
2022-12-28T22:25:24.561Z,94013.78
2022-12-28T22:27:51.040Z,94009.94
2022-12-28T22:30:17.932Z,94007.34
2022-12-28T22:32:44.419Z,94013.00
2022-12-28T22:35:11.149Z,94008.88
2022-12-28T22:37:37.612Z,94006.28
2022-12-28T22:40:05.463Z,94010.69
2022-12-28T22:42:32.263Z,94002.91
2022-12-28T22:44:58.873Z,93993.09
2022-12-28T22:47:28.012Z,93996.22
2022-12-28T22:49:54.794Z,93995.16
2022-12-28T22:52:21.249Z,93979.66
2022-12-28T22:54:47.802Z,93981.19
2022-12-28T22:57:14.231Z,93981.19
2022-12-28T22:59:40.675Z,93979.63
2022-12-28T23:02:07.221Z,93981.66
2022-12-28T23:04:33.870Z,93975.72
2022-12-28T23:07:03.884Z,93979.56
2022-12-28T23:09:31.421Z,93985.25
2022-12-28T23:11:58.176Z,93982.13
2022-12-28T23:14:43.610Z,93962.97
2022-12-28T23:17:12.721Z,93971.75
2022-12-28T23:19:58.196Z,93962.66
2022-12-28T23:22:46.739Z,93956.66
2022-12-28T23:25:37.416Z,93960.28
2022-12-28T23:28:10.397Z,93951.19
2022-12-28T23:30:41.943Z,93953.50
2022-12-28T23:33:08.914Z,93949.63
2022-12-28T23:35:35.359Z,93945.44
2022-12-28T23:38:01.869Z,93950.84
2022-12-28T23:40:28.316Z,93943.59
2022-12-28T23:42:54.885Z,93942.56
2022-12-28T23:45:21.484Z,93942.03
2022-12-28T23:47:48.099Z,93945.34
2022-12-28T23:50:16.486Z,93938.38
2022-12-28T23:52:43.307Z,93940.16
2022-12-28T23:55:10.453Z,93935.72
2022-12-28T23:57:37.796Z,93922.19
